Calgary International Airport
CYYC : now visible

Airfield :











YOU CAN JOIN US ON...

 
LOGIN :

Register | Disclaimer

   EN    FR    IT 

 









Legend :    VFR   Marginal VFR   IFR   Intensive IFR   Very Intensive IFR
Visi :
Ceiling :
>= 8 km
>= 3000ft
5 to 8 km
1000 to 3000 ft
1500m to 5 km
500 to 1000 ft
800 to 1500m
200 to 500 ft
< 800m
< 200 ft
Symbols :   Thunderstorms  Fog  Heavy snow  Heavy precipitations  Wind > 20 kt






- Airport Elevation : 3557 ft
- IATA code : YYC


CYYC - Calgary International

CURRENT METAR :
  • 071500Z 33011KT 14SM -SHRA FEW012 FEW035 BKN050 BKN066 10/07 A2980 RMK CF1SC2SC4AS1 CF TR VIS SW MTS 35/CVCTV CLD EMBD SLP093 DENSITY ALT 4100FT

EXPIRED METARs :
  • 071415Z 32008KT 9SM -SHRA FEW010 BKN045 BKN080 10/08 A2980 RMK CF1SC7AC1 CF TR AC TR CB EMBD E-S SLP090 DENSITY ALT 4000FT
  • 071400Z 34009KT 6SM -SHRA BR FEW010 OVC040 OVC080 09/08 A2979 RMK CF1SC8AC1 CF TR AC TR CB EMBD SE-SW SLP087 DENSITY ALT 4000FT
  • 071300Z 33011G21KT 5SM -SHRA BR BKN035CB BKN055 10/08 A2978 RMK CB6SC2 SLP083 DENSITY ALT 4000FT
  • 071237Z 33017G28KT 5SM -SHRA BR BKN045CB OVC063 10/08 A2977 RMK CB5SC3 SLP076 DENSITY ALT 4100FT

TAF TAF CYYC
Valid from the 07 at 15:00 until the 08 at 12:00 UTC


071438Z 0715/0812 34008KT P6SM -SHRA SCT012 OVC040
BECMG 0715/0717 P6SM NSW SCT040 BKN080
FM072000 28012G22KT P6SM FEW080
BECMG 0722/0724 28012KT
FM080400 28008KT P6SM SKC
BECMG 0804/0806 VRB03KT
FM080900 VRB03KT P6SM BKN150 RMK NXT FCST BY 071800Z
CZEG FIR / North America



MET'MAP, your aeronautical weather chart ! - Copyright ORBIFLY December 2007 - Disclaimer

ORBIFLY MET'MAP TEAM :

Programming & Development : Alexandra Zaïnal
Concept & original design : Baudouin d'Aumeries
Assistance for programming : Marc-Olivier Méhu
Technical & hardware support : Manuel Goepfert

Contact : metmap@orbifly.com




SOURCES & CREDITS :

   NOAA       Earth
Advisory